createdAt,value
2023-03-30T00:02:53.818Z,81.53
2023-03-30T00:07:56.864Z,81.38
2023-03-30T00:12:59.693Z,80.27
2023-03-30T00:18:03.986Z,76.99
2023-03-30T00:23:06.984Z,73.06
2023-03-30T00:28:09.751Z,71.46
2023-03-30T00:33:16.586Z,70.40
2023-03-30T00:38:20.872Z,69.59
2023-03-30T00:43:24.586Z,69.32
2023-03-30T00:48:32.703Z,69.16
2023-03-30T00:53:38.382Z,69.24
2023-03-30T00:58:43.529Z,69.06
2023-03-30T01:03:49.204Z,68.71
2023-03-30T01:08:52.968Z,67.74
2023-03-30T01:14:00.204Z,67.34
2023-03-30T01:19:25.524Z,66.76
2023-03-30T01:25:08.560Z,66.38
2023-03-30T01:30:27.854Z,66.28
2023-03-30T01:36:14.454Z,65.27
2023-03-30T01:41:29.820Z,65.08
2023-03-30T01:46:37.841Z,64.43
2023-03-30T01:51:48.141Z,64.20
2023-03-30T01:56:56.201Z,64.06
2023-03-30T02:02:04.256Z,64.31
2023-03-30T02:07:11.223Z,64.15
2023-03-30T02:12:15.861Z,63.72
2023-03-30T02:17:24.557Z,62.89
2023-03-30T02:22:29.438Z,62.36
2023-03-30T02:27:35.042Z,62.43
2023-03-30T02:32:42.890Z,61.87
2023-03-30T02:38:11.189Z,61.47
2023-03-30T02:43:39.582Z,60.52
2023-03-30T02:48:58.298Z,60.24
2023-03-30T02:54:12.259Z,60.04
2023-03-30T02:59:43.224Z,59.91
2023-03-30T03:04:47.115Z,60.38
2023-03-30T03:10:21.871Z,60.83
2023-03-30T03:15:26.162Z,61.00
2023-03-30T03:20:41.112Z,60.50
2023-03-30T03:25:44.439Z,60.04
2023-03-30T03:30:51.043Z,58.64
2023-03-30T03:35:59.908Z,58.52
2023-03-30T03:41:04.026Z,57.72
2023-03-30T03:46:09.653Z,57.87
2023-03-30T03:51:12.427Z,57.78
2023-03-30T03:56:15.441Z,58.35
2023-03-30T04:01:19.728Z,58.43
2023-03-30T04:06:22.535Z,58.77
2023-03-30T04:11:26.646Z,58.83
2023-03-30T04:16:52.479Z,58.57
2023-03-30T04:22:13.957Z,58.47
2023-03-30T04:27:42.675Z,58.96
2023-03-30T04:33:16.104Z,59.99
2023-03-30T04:38:36.466Z,61.01
2023-03-30T04:43:59.606Z,61.28
2023-03-30T04:49:21.715Z,61.81
2023-03-30T04:55:02.882Z,61.95
2023-03-30T05:00:09.041Z,61.12
2023-03-30T05:05:31.586Z,60.35
2023-03-30T05:10:52.987Z,59.67
2023-03-30T05:16:16.161Z,59.25
2023-03-30T05:21:23.098Z,58.55
2023-03-30T05:26:46.147Z,58.26
2023-03-30T05:32:12.503Z,58.03
2023-03-30T05:37:39.794Z,57.60
2023-03-30T05:43:09.394Z,57.38
2023-03-30T05:48:32.516Z,56.87
2023-03-30T05:53:59.747Z,57.59
2023-03-30T05:59:31.752Z,57.66
2023-03-30T06:04:53.466Z,58.24
2023-03-30T06:09:59.610Z,58.31
2023-03-30T06:15:05.089Z,58.42
2023-03-30T06:20:27.531Z,58.92
2023-03-30T06:25:32.463Z,58.82
2023-03-30T06:30:35.981Z,59.56
2023-03-30T06:35:46.182Z,58.67
2023-03-30T06:40:51.347Z,58.37
2023-03-30T06:45:57.948Z,58.39
2023-03-30T06:51:02.497Z,58.58
2023-03-30T06:56:08.654Z,58.38
2023-03-30T07:01:18.816Z,57.75
2023-03-30T07:06:40.656Z,56.97
2023-03-30T07:11:45.573Z,56.16
2023-03-30T07:16:49.281Z,55.99
2023-03-30T07:21:52.480Z,55.36
2023-03-30T07:27:01.078Z,55.10
2023-03-30T07:32:04.546Z,55.08
2023-03-30T07:37:07.818Z,55.33
2023-03-30T07:42:12.337Z,55.40
2023-03-30T07:47:16.629Z,54.09
2023-03-30T07:52:20.241Z,56.17
2023-03-30T07:57:32.427Z,55.74
2023-03-30T08:02:36.568Z,56.14
2023-03-30T08:07:39.720Z,55.03
2023-03-30T08:12:52.258Z,56.95
2023-03-30T08:17:55.291Z,56.84
2023-03-30T08:22:58.109Z,57.12
2023-03-30T08:28:02.314Z,56.89
2023-03-30T08:33:05.696Z,58.36
2023-03-30T08:38:09.853Z,60.68
2023-03-30T08:43:37.839Z,60.34
2023-03-30T08:48:42.915Z,60.27
2023-03-30T08:53:45.748Z,59.64
2023-03-30T08:59:00.123Z,59.42
2023-03-30T09:04:12.740Z,61.75
2023-03-30T09:09:17.882Z,60.04
2023-03-30T09:14:33.007Z,61.37
2023-03-30T09:19:41.768Z,60.36
2023-03-30T09:24:44.632Z,68.74
2023-03-30T09:29:51.607Z,80.62
2023-03-30T09:35:00.777Z,79.74
2023-03-30T09:40:19.734Z,91.28
2023-03-30T09:45:28.261Z,94.23
2023-03-30T09:50:31.744Z,93.55
2023-03-30T09:55:36.659Z,93.52
2023-03-30T10:00:41.423Z,91.65
2023-03-30T10:05:44.326Z,90.56
2023-03-30T10:10:53.867Z,87.86
2023-03-30T10:16:04.836Z,85.07
2023-03-30T10:21:17.980Z,81.26
2023-03-30T10:26:21.250Z,79.37
2023-03-30T10:31:28.063Z,75.65
2023-03-30T10:36:33.836Z,73.92
2023-03-30T10:41:39.675Z,73.65
2023-03-30T10:46:44.135Z,70.93
2023-03-30T10:51:57.783Z,67.61
2023-03-30T10:57:08.058Z,68.53
2023-03-30T11:02:31.378Z,65.61
2023-03-30T11:07:39.307Z,62.73
2023-03-30T11:12:45.978Z,64.81
2023-03-30T11:17:56.832Z,65.64
2023-03-30T11:23:11.923Z,63.63
2023-03-30T11:28:23.696Z,63.27
2023-03-30T11:33:35.567Z,61.74
2023-03-30T11:38:46.993Z,58.07
2023-03-30T11:43:50.563Z,59.46
2023-03-30T11:49:10.214Z,58.56
2023-03-30T11:54:38.537Z,58.53
2023-03-30T11:59:48.986Z,58.35
2023-03-30T12:04:57.795Z,57.05
2023-03-30T12:10:06.099Z,58.62
2023-03-30T12:15:26.631Z,58.09
2023-03-30T12:20:38.294Z,57.41
2023-03-30T12:26:01.351Z,56.91
2023-03-30T12:31:04.480Z,57.49
2023-03-30T12:36:26.054Z,58.13
2023-03-30T12:41:39.925Z,56.62
2023-03-30T12:46:51.397Z,56.75
2023-03-30T12:52:09.556Z,56.21
2023-03-30T12:57:28.141Z,52.95
2023-03-30T13:02:56.823Z,67.97
2023-03-30T13:08:05.536Z,86.31
2023-03-30T13:13:19.004Z,88.42
2023-03-30T13:18:36.766Z,77.96
2023-03-30T13:23:40.898Z,72.75
2023-03-30T13:28:58.144Z,68.67
2023-03-30T13:34:08.759Z,68.08
2023-03-30T13:39:22.747Z,66.68
2023-03-30T13:44:42.491Z,62.24
2023-03-30T13:49:53.948Z,62.63
2023-03-30T13:54:58.552Z,57.93
2023-03-30T14:00:09.465Z,57.64
2023-03-30T14:05:14.453Z,58.95
2023-03-30T14:10:20.754Z,61.10
2023-03-30T14:15:27.292Z,59.84
2023-03-30T14:20:45.475Z,56.96
2023-03-30T14:25:49.731Z,58.54
2023-03-30T14:30:54.345Z,56.89
2023-03-30T14:35:59.479Z,57.68
2023-03-30T14:41:08.370Z,57.33
2023-03-30T14:46:13.541Z,57.13
2023-03-30T14:51:25.520Z,57.21
2023-03-30T14:56:30.957Z,60.36
2023-03-30T15:01:35.105Z,66.22
2023-03-30T15:06:39.127Z,70.15
2023-03-30T15:11:45.778Z,72.42
2023-03-30T15:16:53.615Z,75.56
2023-03-30T15:21:59.508Z,75.58
2023-03-30T15:27:06.612Z,72.54
2023-03-30T15:32:16.486Z,70.89
2023-03-30T15:37:24.087Z,69.23
2023-03-30T15:42:30.866Z,69.15
2023-03-30T15:47:34.694Z,69.22
2023-03-30T15:52:42.948Z,69.12
2023-03-30T15:57:49.099Z,70.56
2023-03-30T16:02:57.637Z,69.08
2023-03-30T16:08:01.303Z,67.22
2023-03-30T16:13:07.000Z,66.00
2023-03-30T16:18:11.756Z,63.79
2023-03-30T16:23:14.623Z,64.58
2023-03-30T16:28:19.444Z,66.24
2023-03-30T16:33:22.393Z,66.50
2023-03-30T16:38:25.409Z,67.17
2023-03-30T16:43:29.609Z,68.84
2023-03-30T16:48:32.423Z,66.87
2023-03-30T16:53:35.458Z,67.02
2023-03-30T16:58:39.878Z,65.98
2023-03-30T17:03:42.758Z,67.32
2023-03-30T17:08:46.352Z,66.46
2023-03-30T17:13:51.261Z,66.50
2023-03-30T17:18:54.046Z,69.24
2023-03-30T17:23:56.879Z,75.94
2023-03-30T17:29:01.185Z,85.15
2023-03-30T17:34:04.100Z,87.19
2023-03-30T17:39:07.224Z,88.08
2023-03-30T17:44:11.482Z,89.04
2023-03-30T17:49:17.885Z,87.81
2023-03-30T17:54:20.847Z,88.19
2023-03-30T17:59:25.208Z,86.28
2023-03-30T18:04:28.589Z,85.65
2023-03-30T18:09:31.492Z,85.42
2023-03-30T18:14:35.677Z,84.63
2023-03-30T18:19:38.466Z,83.58
2023-03-30T18:24:42.496Z,82.86
2023-03-30T18:29:46.726Z,81.92
2023-03-30T18:34:49.489Z,87.68
2023-03-30T18:39:52.255Z,88.45
2023-03-30T18:44:56.444Z,85.83
2023-03-30T18:49:59.370Z,85.54
2023-03-30T18:55:02.159Z,84.71
2023-03-30T19:00:15.290Z,83.86
2023-03-30T19:05:20.602Z,83.03
2023-03-30T19:10:27.435Z,82.50
2023-03-30T19:15:33.714Z,82.19
2023-03-30T19:20:39.876Z,82.15
2023-03-30T19:25:43.905Z,82.25
2023-03-30T19:30:48.505Z,82.65
2023-03-30T19:35:51.359Z,81.63
2023-03-30T19:40:54.174Z,81.06
2023-03-30T19:45:58.438Z,82.04
2023-03-30T19:51:02.271Z,81.50
2023-03-30T19:56:10.254Z,82.27
2023-03-30T20:01:14.539Z,81.50
2023-03-30T20:06:17.329Z,80.27
2023-03-30T20:11:20.066Z,80.41
2023-03-30T20:16:25.936Z,79.46
2023-03-30T20:21:28.996Z,80.08
2023-03-30T20:26:32.681Z,80.98
2023-03-30T20:31:36.900Z,80.74
2023-03-30T20:36:40.419Z,81.17
2023-03-30T20:41:43.250Z,81.22
2023-03-30T20:46:47.475Z,80.14
2023-03-30T20:51:50.718Z,78.95
2023-03-30T20:56:53.532Z,78.84
2023-03-30T21:01:59.167Z,78.58
2023-03-30T21:07:02.131Z,77.55
2023-03-30T21:12:05.350Z,77.25
2023-03-30T21:17:09.680Z,76.57
2023-03-30T21:22:12.553Z,76.77
2023-03-30T21:27:15.650Z,76.61
2023-03-30T21:32:19.862Z,77.52
2023-03-30T21:37:22.653Z,78.25
2023-03-30T21:42:25.638Z,78.88
2023-03-30T21:47:29.809Z,79.91
2023-03-30T21:52:33.538Z,80.13
2023-03-30T21:57:36.379Z,80.18
2023-03-30T22:02:40.601Z,80.32
2023-03-30T22:07:43.504Z,80.28
2023-03-30T22:12:46.390Z,79.64
2023-03-30T22:17:50.543Z,79.69
2023-03-30T22:22:53.345Z,78.94
2023-03-30T22:27:57.888Z,78.79
2023-03-30T22:33:02.529Z,79.08
2023-03-30T22:38:05.711Z,78.94
2023-03-30T22:43:09.478Z,77.98
2023-03-30T22:48:13.697Z,78.18
2023-03-30T22:53:16.504Z,76.36
2023-03-30T22:58:19.247Z,76.60
2023-03-30T23:03:23.490Z,76.43
2023-03-30T23:08:26.306Z,77.14
2023-03-30T23:13:29.246Z,76.11
2023-03-30T23:18:33.940Z,75.42
2023-03-30T23:23:37.744Z,75.55
2023-03-30T23:28:42.294Z,75.05
2023-03-30T23:33:46.816Z,74.72
2023-03-30T23:38:51.582Z,74.12
2023-03-30T23:43:54.370Z,73.87
2023-03-30T23:48:58.577Z,73.06
2023-03-30T23:54:06.181Z,73.00
2023-03-30T23:59:10.094Z,73.10
